CYKG

Kangiqsujuaq (Wakeham Bay) Airport

Kangiqsujuaq, Quebec, Canada
METAR CYKG 132200Z 27004KT 12SM OVC028 M09/M13 A2970 RMK SC8 SN COV/MEDIUM PACK LAST STFD OBS/NEXT 141300 UTC SLP076
Observed Flight Rules
Dec-13 @ 22:00 UTC (4 hours ago) Marginal Visual Flight Rules
Wind Visibility Clouds
270° at 4 knots 12 miles
  • Overcast at 2,800' AGL
Temperatures Readings
Current -9°C / 16°F
Dewpoint -13°C / 9°F
Humidity 73%
Altimeter 29.7" Hg
Pressure 1007.6 hPa
Elevation 151
METAR CYKG 132200Z 27004KT 12SM OVC028 M09/M13 A2970 RMK SC8 SN COV/MEDIUM PACK LAST STFD OBS/NEXT 141300 UTC SLP076
Observed Flight Rules
Dec-13 @ 22:00 UTC
(4 hours ago)
MVFR
Wind Visibility
270° at 4 knots 12 miles
Clouds
  • Overcast at 2,800' AGL
Temperature Dewpoint
-9°C / 16°F -13°C / 9°F
Humidity Altimeter Pressure
73% 29.7" Hg 1007.6 hPa